РУС

ENG

 
  Pireps - S7
 

Рейс SBI1077

  • Выполнял: Danil Belov
  • Аэропорт отправления: Domodedovo Airport (UUDD)
  • Аэропорт назначения: Kurumoch International Airport (UWWW)
  • Тип ВС: A320-214 (RA-73407)
  • Время полёта: 03.18
  • Дата полёта: 28.06.2022
  • Маршрут: TOGMO M56 ABAGI T794 RUBEK
  • Статус: Одобрен

Детали полёта
Gross Revenue:
(127 load / $ 130.00 per unit
$ 16, 510.00
Fuel Cost:
(2736 fuel used @ 5.1 / unit)
$ 13, 953.60


Дополнительная информация о полёте:

Лог

Aircraft Used in flight is 320_JARDesign_v3.7R1 S7new
10:05 Strobe Lights ON at 600 AGL
10:05 Beacon Lights ON at 600 AGL
10:07 Engine 1 Started
10:11 Engine 2 Started
10:15 Brakes are Released
10:17Flaps 2 Selected at 600ft and 16kts
10:18 Taxi Lights ON at 600 AGL
10:18 Landing Lights ON at 600 AGL
10:20 You Took off @ 141 Knots and Flaps at Position 2
Departure Weather
UUDD 280700Z 04006MPS CAVOK 24/14 Q1020 R88/CLRD60 NOSIG
10:20 Landing Gear Up @ 159 Knots and 810 Feet
10:20Flaps Retracted at 1420ft and 193kts
10:21 Below 10000 feet you are not allowed to go over 250 knots
10:21 Taxi Lights OFF at 2790 AGL
10:22 You exceeded maximum bank angle
10:22 Landing Lights OFF at 5460 AGL
11:24 Taxi Lights ON at 6990 AGL
11:27 Landing Lights ON at 4970 AGL
11:27Flaps 2 Selected at 4820ft and 207kts
11:28Flaps 4 Selected at 4570ft and 219kts
11:29Flaps 6 Selected at 4190ft and 183kts
11:29 Landing Gear Down @ 176 Knots and 4130 Feet
11:29Flaps 8 Selected at 4060ft and 174kts
11:32 You Landed @ 131 Knots and with -250 Vertical Speed
Arrival Weather
UWWW 280630Z 02008MPS 9999 BKN033 18/08 Q1014 R33/CLRD60 NOSIG RMK QFE750/1000
11:33 Brakes are On
11:33 Brakes are Released
11:33 Brakes are On
11:33 Brakes are Released
11:33 Landing Lights OFF at 480 AGL
11:33 Taxi Lights OFF at 480 AGL
11:33 Brakes are On
11:33 Brakes are Released
11:33Flaps 6 Selected at 480ft and 11kts
11:33Flaps 4 Selected at 480ft and 10kts
11:33Flaps 2 Selected at 480ft and 10kts
11:33Flaps Retracted at 480ft and 10kts
11:35 Brakes are On
11:35 Brakes are Released
11:35 Brakes are On
11:35 Brakes are Released
11:36 Brakes are On
11:36 Engine 1 Stoped
11:36 Engine 2 Stoped
Pirep logged with S7 Tracking 1.0.0.14



Общая оценка полета : 100%




Route Map



 
 
   
 
Новости

29.12.2021 - C Новым годом

Дорогие друзья, поздравляю вас с Наступающим Новым годом!
Желаем успехов, приятных взлетов и мягких посадок!

   
 
Авторизация






Регистрация

Восстановить пароль?

Мы в соц. сетях

      



   
 





   
 


   
 


Яндекс.Метрика

www.va-s7.ru 2011-2021
Все права защищены.



Минуточку внимания!
Сайт va-s7.ru не является коммерческим проектом. Мы не имеем отношения к торговым маркам "S7" и "Globus" и их представителям.
Эмблемы на сайте являются собственностью соответствующих компаний.

аэронавигационная метеорологическая и любая другая информация с данного ресурса ни в коем случае не должна использоваться для реальных полетов